Humboldt, Tennessee
Current Conditions -  °F | °C
As of 10:09 PM on Sunday 23 Nov 2014 (Local Time) from KMKL Reporting Station
Broken Clouds Broken Clouds  
Wind Chill: 63°   Ceiling: 6000
Heat Index: 63°   Visibility: 10mi
Dew Point: 57°   Wind: 13mph
Humidity: 82%   Direction: 200°SSW
Pressure: 29.46"   Gusts: 21mph
Location:  35.82°N, 88.91°W
Report Text: KMKL 240409Z AUTO 20011G18KT 10SM FEW020 SCT026 BKN060 17/14 A2946 RMK AO2
Loading
Personal Weather Stations






























Interactive Weather Map New forecast layout! Learn more

10-Day Weather Forecast

Advertisements
Track Severe Weather on mobile